createdAt,value
2024-01-11T00:04:33.358Z,97511.63
2024-01-11T00:09:35.485Z,97484.34
2024-01-11T00:14:37.681Z,97474.94
2024-01-11T00:19:39.820Z,97453.59
2024-01-11T00:24:41.979Z,97437.38
2024-01-11T00:29:44.108Z,97433.94
2024-01-11T00:34:46.181Z,97407.47
2024-01-11T00:39:48.148Z,97386.09
2024-01-11T00:44:50.133Z,97372.38
2024-01-11T00:49:52.245Z,97358.72
2024-01-11T00:54:54.390Z,97342.47
2024-01-11T00:59:56.491Z,97331.31
2024-01-11T01:04:58.659Z,97316.75
2024-01-11T01:10:00.741Z,97288.50
2024-01-11T01:15:02.986Z,97279.88
2024-01-11T01:20:06.493Z,97257.56
2024-01-11T01:25:09.011Z,97248.97
2024-01-11T01:30:11.258Z,97236.88
2024-01-11T01:35:13.340Z,97232.50
2024-01-11T01:40:15.499Z,97210.13
2024-01-11T01:45:17.770Z,97195.47
2024-01-11T01:50:19.937Z,97164.56
2024-01-11T01:55:22.077Z,97145.72
2024-01-11T02:00:24.206Z,97158.44
2024-01-11T02:05:26.406Z,97143.72
2024-01-11T02:10:28.598Z,97140.09
2024-01-11T02:15:30.665Z,97118.59
2024-01-11T02:20:33.215Z,97107.19
2024-01-11T02:25:35.444Z,97080.47
2024-01-11T02:30:37.593Z,97076.88
2024-01-11T02:35:40.887Z,97067.94
2024-01-11T02:40:44.066Z,97039.66
2024-01-11T02:45:46.128Z,97044.59
2024-01-11T02:50:50.001Z,97025.59
2024-01-11T02:55:52.317Z,97021.91
2024-01-11T03:00:54.538Z,97001.03
2024-01-11T03:05:56.793Z,96993.00
2024-01-11T03:10:58.903Z,96983.41
2024-01-11T03:16:01.035Z,96990.13
2024-01-11T03:21:03.342Z,96964.00
2024-01-11T03:26:05.530Z,96953.59
2024-01-11T03:31:09.074Z,96944.63
2024-01-11T03:36:11.532Z,96935.84
2024-01-11T03:41:13.591Z,96930.47
2024-01-11T03:46:15.710Z,96916.28
2024-01-11T03:51:17.791Z,96924.63
2024-01-11T03:56:19.917Z,96915.91
2024-01-11T04:01:22.081Z,96909.59
2024-01-11T04:06:24.589Z,96905.94
2024-01-11T04:11:29.662Z,96901.66
2024-01-11T04:16:31.757Z,96893.81
2024-01-11T04:21:33.964Z,96882.28
2024-01-11T04:26:36.162Z,96885.59
2024-01-11T04:31:38.349Z,96878.66
2024-01-11T04:36:40.613Z,96874.03
2024-01-11T04:41:42.794Z,96871.28
2024-01-11T04:46:45.006Z,96872.00
2024-01-11T04:51:47.044Z,96860.59
2024-01-11T04:56:49.227Z,96844.16
2024-01-11T05:01:51.401Z,96844.16
2024-01-11T05:06:53.591Z,96833.69
2024-01-11T05:11:55.785Z,96820.88
2024-01-11T05:16:57.859Z,96826.63
2024-01-11T05:21:59.995Z,96822.09
2024-01-11T05:27:02.129Z,96815.06
2024-01-11T05:32:04.675Z,96808.75
2024-01-11T05:37:06.877Z,96808.56
2024-01-11T05:42:08.979Z,96805.66
2024-01-11T05:47:11.169Z,96798.59
2024-01-11T05:52:13.209Z,96791.38
2024-01-11T05:57:15.191Z,96776.81
2024-01-11T06:02:17.403Z,96774.78
2024-01-11T06:07:19.589Z,96769.44
2024-01-11T06:12:21.698Z,96771.91
2024-01-11T06:17:24.010Z,96767.66
2024-01-11T06:22:26.077Z,96757.00
2024-01-11T06:27:28.174Z,96754.94
2024-01-11T06:32:30.321Z,96748.69
2024-01-11T06:37:32.532Z,96748.38
2024-01-11T06:42:34.863Z,96751.34
2024-01-11T06:47:37.149Z,96750.00
2024-01-11T06:52:39.392Z,96738.38
2024-01-11T06:57:41.543Z,96732.66
2024-01-11T07:02:43.621Z,96716.22
2024-01-11T07:07:45.701Z,96720.59
2024-01-11T07:12:47.761Z,96716.34
2024-01-11T07:17:50.038Z,96718.88
2024-01-11T07:22:52.208Z,96715.75
2024-01-11T07:27:54.306Z,96706.41
2024-01-11T07:32:56.433Z,96693.16
2024-01-11T07:37:59.609Z,96693.06
2024-01-11T07:43:01.771Z,96694.91
2024-01-11T07:48:04.282Z,96678.22
2024-01-11T07:53:06.209Z,96673.41
2024-01-11T07:58:08.680Z,96668.22
2024-01-11T08:03:10.565Z,96662.06
2024-01-11T08:08:12.715Z,96661.22
2024-01-11T08:13:14.827Z,96644.56
2024-01-11T08:18:19.249Z,96643.19
2024-01-11T08:23:21.309Z,96650.03
2024-01-11T08:28:23.412Z,96648.53
2024-01-11T08:33:25.637Z,96639.44
2024-01-11T08:38:27.768Z,96648.56
2024-01-11T08:43:29.948Z,96714.25
2024-01-11T08:48:32.076Z,96732.63
2024-01-11T08:53:34.489Z,96738.28
2024-01-11T08:58:36.664Z,96729.81
2024-01-11T09:03:38.993Z,96742.53
2024-01-11T09:08:41.181Z,96759.34
2024-01-11T09:13:43.401Z,96755.78
2024-01-11T09:18:46.120Z,96772.31
2024-01-11T09:23:48.324Z,96790.47
2024-01-11T09:28:50.567Z,96800.94
2024-01-11T09:33:54.300Z,96805.88
2024-01-11T09:38:56.321Z,96820.44
2024-01-11T09:43:58.329Z,96825.97
2024-01-11T09:49:00.437Z,96820.34
2024-01-11T09:54:02.600Z,96842.66
2024-01-11T09:59:04.704Z,96836.41
2024-01-11T10:04:06.913Z,96852.97
2024-01-11T10:09:09.011Z,96866.34
2024-01-11T10:14:15.141Z,96898.44
2024-01-11T10:19:17.428Z,96896.00
2024-01-11T10:24:19.916Z,96919.59
2024-01-11T10:29:22.004Z,96942.09
2024-01-11T10:34:27.157Z,96964.84
2024-01-11T10:39:29.294Z,96991.81
2024-01-11T10:44:31.406Z,96990.16
2024-01-11T10:49:33.993Z,97016.44
2024-01-11T10:54:36.122Z,97031.13
2024-01-11T10:59:38.680Z,97047.41
2024-01-11T11:04:41.832Z,97057.75
2024-01-11T11:09:44.009Z,97075.88
2024-01-11T11:14:46.448Z,97062.19
2024-01-11T11:19:48.538Z,97095.47
2024-01-11T11:25:03.604Z,97096.53
2024-01-11T11:30:06.559Z,97125.66
2024-01-11T11:35:08.885Z,97131.59
2024-01-11T11:40:10.775Z,97139.34
2024-01-11T11:45:12.909Z,97156.41
2024-01-11T11:50:14.897Z,97182.03
2024-01-11T11:55:16.957Z,97170.94
2024-01-11T12:00:19.113Z,97191.41
2024-01-11T12:05:21.405Z,97177.78
2024-01-11T12:10:23.311Z,97205.94
2024-01-11T12:15:25.366Z,97202.53
2024-01-11T12:20:27.402Z,97212.78
2024-01-11T12:25:29.775Z,97220.41
2024-01-11T12:30:31.721Z,97241.63
2024-01-11T12:35:34.074Z,97247.56
2024-01-11T12:40:36.783Z,97281.53
2024-01-11T12:45:38.943Z,97293.28
2024-01-11T12:50:41.507Z,97272.69
2024-01-11T12:55:51.757Z,97268.41
2024-01-11T13:00:59.671Z,97262.50
2024-01-11T13:06:01.637Z,97274.38
2024-01-11T13:11:03.971Z,97274.47
2024-01-11T13:16:06.176Z,97274.44
2024-01-11T13:21:08.462Z,97283.72
2024-01-11T13:26:10.683Z,97278.66
2024-01-11T13:31:12.647Z,97297.31
2024-01-11T13:36:14.671Z,97303.28
2024-01-11T13:41:16.840Z,97314.31
2024-01-11T13:46:18.723Z,97312.63
2024-01-11T13:51:20.851Z,97323.66
2024-01-11T13:56:24.227Z,97323.69
2024-01-11T14:01:26.534Z,97337.28
2024-01-11T14:06:28.507Z,97339.00
2024-01-11T14:11:30.858Z,97331.13
2024-01-11T14:16:32.870Z,97338.94
2024-01-11T14:21:35.242Z,97355.06
2024-01-11T14:26:37.106Z,97354.25
2024-01-11T14:31:39.333Z,97356.88
2024-01-11T14:36:41.493Z,97375.63
2024-01-11T14:41:43.395Z,97381.41
2024-01-11T14:46:45.578Z,97377.16
2024-01-11T14:51:47.463Z,97386.47
2024-01-11T14:56:49.506Z,97390.72
2024-01-11T15:01:51.831Z,97404.25
2024-01-11T15:06:53.707Z,97412.78
2024-01-11T15:11:55.904Z,97412.78
2024-01-11T15:16:59.521Z,97428.13
2024-01-11T15:22:01.949Z,97427.19
2024-01-11T15:27:04.283Z,97433.03
2024-01-11T15:32:07.012Z,97448.38
2024-01-11T15:37:09.187Z,97454.38
2024-01-11T15:42:11.056Z,97459.41
2024-01-11T15:47:13.204Z,97482.28
2024-01-11T15:52:15.463Z,97471.81
2024-01-11T15:57:19.358Z,97471.78
2024-01-11T16:02:22.053Z,97470.91
2024-01-11T16:07:24.109Z,97503.25
2024-01-11T16:12:25.985Z,97487.03
2024-01-11T16:17:30.444Z,97505.63
2024-01-11T16:22:33.605Z,97514.06
2024-01-11T16:27:35.785Z,97518.25
2024-01-11T16:32:37.648Z,97519.03
2024-01-11T16:37:39.816Z,97527.50
2024-01-11T16:42:42.180Z,97528.31
2024-01-11T16:47:44.726Z,97526.56
2024-01-11T16:52:46.930Z,97535.13
2024-01-11T16:57:48.930Z,97541.16
2024-01-11T17:02:51.018Z,97541.16
2024-01-11T17:07:54.138Z,97559.00
2024-01-11T17:12:56.487Z,97566.63
2024-01-11T17:17:58.940Z,97569.94
2024-01-11T17:23:01.142Z,97580.03
2024-01-11T17:28:03.326Z,97593.50
2024-01-11T17:33:05.679Z,97604.47
2024-01-11T17:38:07.992Z,97614.53
2024-01-11T17:43:10.158Z,97605.78
2024-01-11T17:48:12.170Z,97627.00
2024-01-11T17:53:17.569Z,97622.72
2024-01-11T17:58:21.345Z,97664.94
2024-01-11T18:03:23.770Z,97691.25
2024-01-11T18:08:25.900Z,97699.41
2024-01-11T18:13:27.745Z,97698.41
2024-01-11T18:18:29.914Z,97716.16
2024-01-11T18:23:32.223Z,97729.91
2024-01-11T18:28:34.335Z,97754.22
2024-01-11T18:33:36.618Z,97761.25
2024-01-11T18:38:38.818Z,97761.69
2024-01-11T18:43:40.909Z,97787.06
2024-01-11T18:48:43.196Z,97774.06
2024-01-11T18:53:45.412Z,97792.34
2024-01-11T18:58:47.646Z,97788.75
2024-01-11T19:03:49.910Z,97796.38
2024-01-11T19:08:52.002Z,97811.78
2024-01-11T19:13:54.199Z,97797.09
2024-01-11T19:18:56.431Z,97804.88
2024-01-11T19:23:58.690Z,97807.47
2024-01-11T19:29:00.929Z,97810.16
2024-01-11T19:34:03.031Z,97817.72
2024-01-11T19:39:05.081Z,97821.94
2024-01-11T19:44:07.287Z,97815.97
2024-01-11T19:49:10.291Z,97829.09
2024-01-11T19:54:12.619Z,97833.50
2024-01-11T19:59:14.797Z,97834.66
2024-01-11T20:04:17.074Z,97847.41
2024-01-11T20:09:19.331Z,97855.94
2024-01-11T20:14:21.583Z,97843.31
2024-01-11T20:19:23.668Z,97835.88
2024-01-11T20:24:25.712Z,97856.22
2024-01-11T20:29:27.589Z,97858.41
2024-01-11T20:34:29.706Z,97867.13
2024-01-11T20:39:32.151Z,97872.38
2024-01-11T20:44:37.269Z,97891.16
2024-01-11T20:49:39.611Z,97891.94
2024-01-11T20:54:41.794Z,97910.44
2024-01-11T20:59:44.475Z,97927.53
2024-01-11T21:04:46.506Z,97928.16
2024-01-11T21:09:48.277Z,97938.97
2024-01-11T21:14:50.318Z,97933.16
2024-01-11T21:19:52.527Z,97948.03
2024-01-11T21:24:57.111Z,97954.91
2024-01-11T21:29:59.420Z,97952.94
2024-01-11T21:35:01.589Z,97990.88
2024-01-11T21:40:05.678Z,97987.34
2024-01-11T21:45:08.055Z,98007.91
2024-01-11T21:50:10.743Z,98018.25
2024-01-11T21:55:12.939Z,98036.16
2024-01-11T22:00:15.488Z,98050.50
2024-01-11T22:05:17.756Z,98061.09
2024-01-11T22:10:19.866Z,98046.91
2024-01-11T22:15:21.974Z,98054.81
2024-01-11T22:20:24.216Z,98075.97
2024-01-11T22:25:26.694Z,98089.91
2024-01-11T22:30:28.867Z,98087.38
2024-01-11T22:35:31.046Z,98108.50
2024-01-11T22:40:33.126Z,98126.56
2024-01-11T22:45:35.474Z,98122.00
2024-01-11T22:50:37.754Z,98130.66
2024-01-11T22:55:39.862Z,98134.59
2024-01-11T23:00:42.049Z,98155.19
2024-01-11T23:05:44.227Z,98154.38
2024-01-11T23:10:46.335Z,98151.06
2024-01-11T23:15:48.508Z,98160.66
2024-01-11T23:20:50.602Z,98175.31
2024-01-11T23:25:52.730Z,98183.44
2024-01-11T23:30:54.832Z,98173.59
2024-01-11T23:35:57.143Z,98183.63
2024-01-11T23:40:59.284Z,98192.72
2024-01-11T23:46:01.386Z,98192.47
2024-01-11T23:51:04.255Z,98205.97
2024-01-11T23:56:06.728Z,98199.31
